Disclaimer

Please do not use the information listed here in-flight or in-navigation, as they are not provided to us by the airports but are provided by volunteers, so they might be outdated.

Search


Regions


Airport information page

Radio informations:
GUADALAJARA TWR - 118.1 MHz
Ground (GND) - 121.9 MHz
Automatic Terminal Information Service (ATIS) - 127.9 MHz
GUADALAJARA APP - 119.3 MHz

Airport informations:
Latitude: 20° 31' 18.48" N
Longitude: 103° 18' 40.20" W
Elevation: 5016 feet - 1529 meters
Operating hours: 24 hour operations
Operating agency: Civil government, landing fees and diplomatic clearance may be required
Timezone: UTC-6(-5DT) - First Sunday in April to the last Saturday in October
Fuel: Jet A1, without icing nhibitor.

100/130 MIL Spec, low lead, aviation gasoline (BLUE)

Runway information:
02/20 - 5964 x 94 feet< - >1818 x 29 meters
10/28 - 13123 x 197 feet< - >4000 x 60 meters

Recent METARs:
MMGL 162243Z 28008KT 10SM FEW030 SCT300 23/05 A3012 RMK 8/101
MMGL 162243Z 28008KT 10SM FEW030 SCT300 23/05 A3012 RMK 8/101
MMGL 162354Z 29006KT 10SM FEW030 SCT300 20/05 A3014 RMK SLP132 52006 954 8/101

Airport on the map: